createdAt,value
2017-12-19T00:02:49.297Z,19.73
2017-12-19T00:05:50.628Z,20.50
2017-12-19T00:08:52.641Z,22.33
2017-12-19T00:11:53.953Z,20.93
2017-12-19T00:14:55.999Z,22.13
2017-12-19T00:17:57.376Z,21.73
2017-12-19T00:20:58.720Z,21.97
2017-12-19T00:24:00.761Z,21.83
2017-12-19T00:27:02.136Z,24.27
2017-12-19T00:30:04.248Z,25.57
2017-12-19T00:33:05.549Z,23.93
2017-12-19T00:36:07.575Z,23.37
2017-12-19T00:39:08.849Z,22.97
2017-12-19T00:42:10.133Z,24.63
2017-12-19T00:45:11.421Z,25.40
2017-12-19T00:48:12.702Z,25.40
2017-12-19T00:51:14.772Z,24.03
2017-12-19T00:54:16.755Z,26.77
2017-12-19T00:57:18.061Z,25.33
2017-12-19T01:00:19.306Z,27.40
2017-12-19T01:03:20.589Z,26.60
2017-12-19T01:06:22.620Z,27.87
2017-12-19T01:09:24.613Z,26.40
2017-12-19T01:12:26.630Z,24.57
2017-12-19T01:15:27.969Z,27.07
2017-12-19T01:18:29.238Z,28.43
2017-12-19T01:21:31.260Z,28.90
2017-12-19T01:24:32.502Z,31.20
2017-12-19T01:27:34.544Z,30.97
2017-12-19T01:30:35.792Z,29.20
2017-12-19T01:33:37.060Z,28.90
2017-12-19T01:36:39.068Z,29.90
2017-12-19T01:39:40.344Z,32.47
2017-12-19T01:42:41.645Z,34.93
2017-12-19T01:45:43.182Z,35.77
2017-12-19T01:48:45.224Z,35.57
2017-12-19T01:51:46.494Z,35.40
2017-12-19T01:54:48.488Z,37.00
2017-12-19T01:57:49.772Z,39.00
2017-12-19T02:00:51.032Z,37.77
2017-12-19T02:03:52.340Z,37.47
2017-12-19T02:06:53.584Z,39.87
2017-12-19T02:09:54.844Z,40.17
2017-12-19T02:12:56.097Z,38.13
2017-12-19T02:15:57.381Z,39.50
2017-12-19T02:18:58.635Z,37.37
2017-12-19T02:22:00.709Z,39.10
2017-12-19T02:25:02.724Z,36.50
2017-12-19T02:28:04.057Z,37.77
2017-12-19T02:31:05.359Z,39.60
2017-12-19T02:34:06.676Z,37.60
2017-12-19T02:37:07.992Z,38.37
2017-12-19T02:40:09.260Z,37.30
2017-12-19T02:43:17.792Z,39.50
2017-12-19T02:46:19.056Z,39.70
2017-12-19T02:49:20.380Z,35.07
2017-12-19T02:52:21.691Z,37.47
2017-12-19T02:55:23.698Z,36.73
2017-12-19T02:58:25.061Z,37.23
2017-12-19T03:01:26.312Z,37.87
2017-12-19T03:04:27.632Z,36.00
2017-12-19T03:07:28.901Z,34.53
2017-12-19T03:10:30.201Z,32.93
2017-12-19T03:13:32.233Z,34.20
2017-12-19T03:16:34.333Z,33.60
2017-12-19T03:19:36.358Z,34.00
2017-12-19T03:22:37.767Z,34.27
2017-12-19T03:25:39.062Z,32.50
2017-12-19T03:28:40.382Z,35.07
2017-12-19T03:31:41.664Z,35.00
2017-12-19T03:34:42.960Z,31.57
2017-12-19T03:37:44.252Z,32.10
2017-12-19T03:40:45.546Z,32.40
2017-12-19T03:43:47.552Z,28.63
2017-12-19T03:46:48.833Z,31.10
2017-12-19T03:49:50.151Z,29.30
2017-12-19T03:52:51.418Z,30.80
2017-12-19T03:55:52.702Z,29.77
2017-12-19T03:58:54.029Z,30.63
2017-12-19T04:01:55.327Z,30.17
2017-12-19T04:04:56.640Z,29.17
2017-12-19T04:07:58.638Z,29.17
2017-12-19T04:10:59.960Z,26.87
2017-12-19T04:14:01.980Z,27.30
2017-12-19T04:17:03.284Z,30.53
2017-12-19T04:20:05.321Z,28.00
2017-12-19T04:23:06.588Z,27.57
2017-12-19T04:26:08.622Z,26.00
2017-12-19T04:29:09.970Z,25.70
2017-12-19T04:32:11.230Z,26.90
2017-12-19T04:35:12.534Z,25.03
2017-12-19T04:38:13.780Z,26.87
2017-12-19T04:41:15.094Z,25.63
2017-12-19T04:44:17.123Z,25.13
2017-12-19T04:47:18.408Z,26.53
2017-12-19T04:50:20.465Z,25.83
2017-12-19T04:53:21.772Z,25.57
2017-12-19T04:56:23.053Z,23.40
2017-12-19T04:59:24.333Z,22.90
2017-12-19T05:02:25.637Z,24.57
2017-12-19T05:05:26.948Z,23.20
2017-12-19T05:08:28.272Z,24.77
2017-12-19T05:11:30.327Z,25.20
2017-12-19T05:14:31.665Z,23.30
2017-12-19T05:17:32.949Z,25.53
2017-12-19T05:20:34.973Z,25.80
2017-12-19T05:23:36.246Z,24.57
2017-12-19T05:26:37.519Z,25.30
2017-12-19T05:29:38.842Z,28.80
2017-12-19T05:32:40.097Z,26.43
2017-12-19T05:35:42.130Z,26.17
2017-12-19T05:38:43.408Z,25.60
2017-12-19T05:41:45.473Z,28.43
2017-12-19T05:44:46.780Z,25.60
2017-12-19T05:47:48.022Z,26.37
2017-12-19T05:50:49.306Z,21.83
2017-12-19T05:53:50.559Z,24.83
2017-12-19T05:56:51.839Z,27.70
2017-12-19T05:59:53.089Z,26.80
2017-12-19T06:02:54.393Z,23.50
2017-12-19T06:05:55.695Z,24.90
2017-12-19T06:08:56.952Z,25.90
2017-12-19T06:11:58.279Z,25.57
2017-12-19T06:14:59.559Z,25.50
2017-12-19T06:18:00.814Z,24.17
2017-12-19T06:21:02.133Z,24.10
2017-12-19T06:24:03.421Z,24.73
2017-12-19T06:27:04.720Z,24.50
2017-12-19T06:30:06.787Z,25.07
2017-12-19T06:33:08.805Z,23.80
2017-12-19T06:36:10.105Z,25.10
2017-12-19T06:39:11.382Z,22.27
2017-12-19T06:42:19.738Z,24.53
2017-12-19T06:45:21.048Z,23.77
2017-12-19T06:48:22.279Z,24.53
2017-12-19T06:51:23.568Z,26.20
2017-12-19T06:54:24.833Z,23.27
2017-12-19T06:57:26.131Z,24.67
2017-12-19T07:00:27.408Z,23.43
2017-12-19T07:03:28.685Z,27.50
2017-12-19T07:06:29.981Z,26.40
2017-12-19T07:09:31.302Z,27.30
2017-12-19T07:12:32.562Z,24.70
2017-12-19T07:15:33.849Z,28.43
2017-12-19T07:18:35.120Z,27.90
2017-12-19T07:21:36.405Z,32.87
2017-12-19T07:24:37.682Z,27.33
2017-12-19T07:27:38.959Z,27.43
2017-12-19T07:30:40.272Z,28.40
2017-12-19T07:33:41.577Z,28.40
2017-12-19T07:36:43.668Z,26.13
2017-12-19T07:39:44.941Z,25.77
2017-12-19T07:42:46.352Z,27.53
2017-12-19T07:45:48.371Z,24.37
2017-12-19T07:48:49.646Z,25.50
2017-12-19T07:51:50.921Z,26.20
2017-12-19T07:54:52.974Z,25.77
2017-12-19T07:57:54.994Z,21.37
2017-12-19T08:00:56.241Z,22.33
2017-12-19T08:03:57.540Z,23.00
2017-12-19T08:06:59.564Z,20.37
2017-12-19T08:10:00.853Z,24.13
2017-12-19T08:13:02.871Z,23.97
2017-12-19T08:16:04.153Z,21.80
2017-12-19T08:19:05.429Z,24.40
2017-12-19T08:22:07.420Z,24.20
2017-12-19T08:25:08.724Z,24.77
2017-12-19T08:28:11.823Z,23.10
2017-12-19T08:31:14.604Z,22.50
2017-12-19T08:34:17.768Z,25.97
2017-12-19T08:37:20.349Z,23.80
2017-12-19T08:40:22.393Z,28.97
2017-12-19T08:43:23.651Z,26.83
2017-12-19T08:46:24.970Z,26.80
2017-12-19T08:49:26.209Z,28.20
2017-12-19T08:52:27.473Z,23.90
2017-12-19T08:55:28.725Z,26.33
2017-12-19T08:58:30.009Z,22.50
2017-12-19T09:01:31.264Z,21.30
2017-12-19T09:04:32.518Z,20.93
2017-12-19T09:07:33.797Z,25.17
2017-12-19T09:10:35.048Z,25.33
2017-12-19T09:13:37.177Z,27.30
2017-12-19T09:16:38.497Z,27.83
2017-12-19T09:19:39.775Z,29.47
2017-12-19T09:22:41.012Z,28.03
2017-12-19T09:25:42.277Z,28.20
2017-12-19T09:28:43.541Z,29.73
2017-12-19T09:31:45.537Z,27.50
2017-12-19T09:34:46.811Z,28.33
2017-12-19T09:37:48.064Z,28.83
2017-12-19T09:40:50.085Z,29.83
2017-12-19T09:43:51.324Z,44.00
2017-12-19T09:46:52.582Z,29.87
2017-12-19T09:49:53.872Z,30.03
2017-12-19T09:52:55.124Z,30.03
2017-12-19T09:55:56.389Z,29.47
2017-12-19T09:58:57.639Z,27.20
2017-12-19T10:01:58.895Z,28.83
2017-12-19T10:05:00.893Z,28.00
2017-12-19T10:08:02.168Z,24.30
2017-12-19T10:11:03.430Z,26.27
2017-12-19T10:14:04.679Z,27.33
2017-12-19T10:17:05.933Z,26.10
2017-12-19T10:20:07.210Z,26.27
2017-12-19T10:23:09.275Z,24.80
2017-12-19T10:26:11.269Z,25.27
2017-12-19T10:29:12.576Z,25.93
2017-12-19T10:32:13.865Z,25.77
2017-12-19T10:35:15.157Z,25.03
2017-12-19T10:38:16.437Z,29.37
2017-12-19T10:41:18.422Z,26.80
2017-12-19T10:44:19.657Z,29.60
2017-12-19T10:47:20.885Z,29.63
2017-12-19T10:50:22.900Z,27.70
2017-12-19T10:53:24.125Z,26.73
2017-12-19T10:56:25.378Z,27.10
2017-12-19T10:59:26.640Z,27.00
2017-12-19T11:02:27.865Z,23.43
2017-12-19T11:05:29.133Z,25.23
2017-12-19T11:08:30.376Z,31.27
2017-12-19T11:11:31.637Z,28.60
2017-12-19T11:14:32.905Z,30.57
2017-12-19T11:17:34.166Z,27.70
2017-12-19T11:20:35.441Z,26.30
2017-12-19T11:23:37.461Z,28.23
2017-12-19T11:26:38.772Z,30.53
2017-12-19T11:29:40.077Z,25.90
2017-12-19T11:32:41.388Z,27.87
2017-12-19T11:35:42.677Z,26.73
2017-12-19T11:38:43.973Z,26.97
2017-12-19T11:41:45.218Z,27.17
2017-12-19T11:44:46.525Z,29.57
2017-12-19T11:47:47.851Z,29.20
2017-12-19T11:50:49.133Z,30.87
2017-12-19T11:53:50.412Z,28.60
2017-12-19T11:56:51.712Z,28.83
2017-12-19T11:59:53.036Z,28.90
2017-12-19T12:02:54.304Z,28.00
2017-12-19T12:06:02.397Z,27.30
2017-12-19T12:09:03.691Z,27.40
2017-12-19T12:12:05.717Z,28.87
2017-12-19T12:15:07.032Z,30.07
2017-12-19T12:18:08.320Z,30.67
2017-12-19T12:21:09.584Z,28.03
2017-12-19T12:24:10.821Z,26.97
2017-12-19T12:27:12.133Z,30.33
2017-12-19T12:30:13.416Z,29.73
2017-12-19T12:33:14.702Z,29.73
2017-12-19T12:36:16.737Z,26.97
2017-12-19T12:39:18.038Z,29.40
2017-12-19T12:42:19.318Z,29.07
2017-12-19T12:45:20.608Z,30.20
2017-12-19T12:48:22.612Z,29.80
2017-12-19T12:51:23.863Z,27.70
2017-12-19T12:54:25.145Z,29.50
2017-12-19T12:57:26.441Z,27.03
2017-12-19T13:00:27.706Z,29.70
2017-12-19T13:03:29.005Z,27.40
2017-12-19T13:06:30.249Z,28.17
2017-12-19T13:09:31.542Z,24.20
2017-12-19T13:12:32.801Z,25.67
2017-12-19T13:15:34.088Z,27.20
2017-12-19T13:18:35.389Z,27.33
2017-12-19T13:21:36.621Z,26.70
2017-12-19T13:24:37.870Z,27.67
2017-12-19T13:27:39.110Z,25.50
2017-12-19T13:30:41.105Z,24.63
2017-12-19T13:33:42.353Z,27.70
2017-12-19T13:36:43.647Z,26.27
2017-12-19T13:39:44.958Z,25.53
2017-12-19T13:42:46.194Z,27.03
2017-12-19T13:45:47.460Z,23.87
2017-12-19T13:48:48.694Z,24.93
2017-12-19T13:51:49.960Z,25.50
2017-12-19T13:54:51.225Z,24.83
2017-12-19T13:57:52.500Z,25.93
2017-12-19T14:00:54.506Z,25.13
2017-12-19T14:03:55.750Z,23.90
2017-12-19T14:06:57.026Z,23.77
2017-12-19T14:09:58.254Z,25.10
2017-12-19T14:12:59.527Z,23.43
2017-12-19T14:16:01.281Z,23.90
2017-12-19T14:19:02.557Z,24.60
2017-12-19T14:22:04.593Z,25.33
2017-12-19T14:25:06.171Z,24.40
2017-12-19T14:28:08.244Z,26.80
2017-12-19T14:31:10.694Z,25.07
2017-12-19T14:34:12.425Z,27.43
2017-12-19T14:37:13.750Z,27.40
2017-12-19T14:40:15.757Z,29.20
2017-12-19T14:43:17.040Z,28.63
2017-12-19T14:46:18.345Z,26.73
2017-12-19T14:49:19.624Z,28.40
2017-12-19T14:52:20.892Z,28.60
2017-12-19T14:55:22.204Z,26.97
2017-12-19T14:58:23.430Z,29.30
2017-12-19T15:01:24.680Z,26.17
2017-12-19T15:04:26.014Z,29.70
2017-12-19T15:07:34.348Z,28.93
2017-12-19T15:10:35.635Z,26.03
2017-12-19T15:13:37.512Z,27.47
2017-12-19T15:16:38.765Z,28.67
2017-12-19T15:19:40.860Z,28.67
2017-12-19T15:22:42.072Z,30.07
2017-12-19T15:25:43.365Z,28.10
2017-12-19T15:28:44.645Z,26.40
2017-12-19T15:31:45.928Z,28.63
2017-12-19T15:34:50.147Z,38.07
2017-12-19T15:37:52.197Z,40.07
2017-12-19T15:40:53.443Z,34.80
2017-12-19T15:43:54.698Z,28.67
2017-12-19T15:46:55.996Z,26.70
2017-12-19T15:49:57.249Z,28.00
2017-12-19T15:52:58.490Z,28.50
2017-12-19T15:55:59.771Z,31.03
2017-12-19T15:59:01.000Z,28.73
2017-12-19T16:02:02.270Z,27.40
2017-12-19T16:05:03.562Z,28.37
2017-12-19T16:08:04.833Z,29.43
2017-12-19T16:11:06.134Z,29.80
2017-12-19T16:14:07.403Z,29.23
2017-12-19T16:17:09.394Z,28.67
2017-12-19T16:20:11.045Z,31.77
2017-12-19T16:23:12.335Z,29.87
2017-12-19T16:26:13.588Z,28.20
2017-12-19T16:29:14.848Z,27.40
2017-12-19T16:32:16.853Z,28.67
2017-12-19T16:35:18.148Z,25.17
2017-12-19T16:38:19.416Z,29.60
2017-12-19T16:41:21.416Z,30.43
2017-12-19T16:44:22.667Z,28.87
2017-12-19T16:47:23.976Z,28.43
2017-12-19T16:50:25.954Z,27.50
2017-12-19T16:53:27.966Z,28.97
2017-12-19T16:56:29.234Z,28.90
2017-12-19T16:59:37.478Z,26.30
2017-12-19T17:02:39.460Z,30.20
2017-12-19T17:05:40.701Z,29.93
2017-12-19T17:08:41.941Z,30.87
2017-12-19T17:11:43.928Z,28.10
2017-12-19T17:14:45.220Z,31.17
2017-12-19T17:17:46.490Z,29.77
2017-12-19T17:20:48.513Z,28.73
2017-12-19T17:23:49.734Z,30.90
2017-12-19T17:26:51.048Z,30.50
2017-12-19T17:29:52.256Z,30.10
2017-12-19T17:32:53.568Z,27.73
2017-12-19T17:35:54.832Z,27.93
2017-12-19T17:38:56.298Z,25.73
2017-12-19T17:41:57.568Z,30.80
2017-12-19T17:44:59.649Z,29.30
2017-12-19T17:48:01.676Z,23.77
2017-12-19T17:51:03.336Z,25.10
2017-12-19T17:54:04.610Z,25.70
2017-12-19T17:57:05.861Z,24.23
2017-12-19T18:00:07.109Z,24.93
2017-12-19T18:03:08.624Z,22.03
2017-12-19T18:06:09.920Z,24.63
2017-12-19T18:09:11.380Z,22.83
2017-12-19T18:12:12.614Z,24.00
2017-12-19T18:15:13.892Z,24.47
2017-12-19T18:18:15.142Z,23.10
2017-12-19T18:21:16.398Z,23.43
2017-12-19T18:24:17.640Z,20.40
2017-12-19T18:27:19.634Z,22.20
2017-12-19T18:30:20.899Z,20.77
2017-12-19T18:33:22.247Z,20.57
2017-12-19T18:36:23.513Z,20.37
2017-12-19T18:39:24.740Z,19.37
2017-12-19T18:42:26.022Z,20.07
2017-12-19T18:45:27.260Z,18.20
2017-12-19T18:48:28.573Z,21.00
2017-12-19T18:51:29.859Z,19.70
2017-12-19T18:54:31.146Z,16.80
2017-12-19T18:57:32.428Z,19.67
2017-12-19T19:00:33.724Z,19.27
2017-12-19T19:03:36.354Z,21.87
2017-12-19T19:06:37.617Z,20.03
2017-12-19T19:09:38.919Z,19.43
2017-12-19T19:12:41.364Z,19.30
2017-12-19T19:15:44.079Z,18.07
2017-12-19T19:18:46.310Z,17.47
2017-12-19T19:21:47.592Z,19.70
2017-12-19T19:24:50.104Z,21.17
2017-12-19T19:27:51.550Z,19.90
2017-12-19T19:30:53.046Z,19.63
2017-12-19T19:33:55.614Z,17.00
2017-12-19T19:36:56.967Z,17.00
2017-12-19T19:39:58.220Z,16.00
2017-12-19T19:42:59.548Z,16.50
2017-12-19T19:46:01.980Z,13.57
2017-12-19T19:49:04.191Z,13.10
2017-12-19T19:52:05.809Z,16.37
2017-12-19T19:55:07.347Z,13.73
2017-12-19T19:58:08.970Z,12.63
2017-12-19T20:01:10.989Z,13.90
2017-12-19T20:04:12.890Z,15.33
2017-12-19T20:07:14.719Z,13.70
2017-12-19T20:10:16.030Z,14.73
2017-12-19T20:13:17.382Z,15.20
2017-12-19T20:16:20.258Z,15.00
2017-12-19T20:19:21.914Z,19.20
2017-12-19T20:22:23.297Z,16.87
2017-12-19T20:25:25.988Z,16.43
2017-12-19T20:28:29.699Z,17.73
2017-12-19T20:31:30.996Z,17.80
2017-12-19T20:34:32.283Z,16.30
2017-12-19T20:37:35.420Z,13.67
2017-12-19T20:40:36.776Z,15.40
2017-12-19T20:43:39.965Z,15.60
2017-12-19T20:46:41.837Z,13.20
2017-12-19T20:49:45.691Z,13.77
2017-12-19T20:52:47.508Z,16.63
2017-12-19T20:55:50.322Z,14.10
2017-12-19T20:58:52.087Z,14.07
2017-12-19T21:01:54.245Z,15.53
2017-12-19T21:04:56.528Z,14.07
2017-12-19T21:07:59.525Z,14.03
2017-12-19T21:11:01.573Z,15.47
2017-12-19T21:14:03.072Z,14.30
2017-12-19T21:17:04.361Z,12.07
2017-12-19T21:20:05.790Z,12.07
2017-12-19T21:23:07.141Z,10.80
2017-12-19T21:26:08.496Z,52.17
2017-12-19T21:29:11.248Z,13.00
2017-12-19T21:32:13.182Z,9.10
2017-12-19T21:35:15.176Z,11.03
2017-12-19T21:38:17.080Z,9.80
2017-12-19T21:41:20.129Z,11.00
2017-12-19T21:44:21.885Z,11.47
2017-12-19T21:47:23.156Z,11.53
2017-12-19T21:50:26.295Z,13.10
2017-12-19T21:53:28.805Z,11.87
2017-12-19T21:56:30.105Z,14.00
2017-12-19T21:59:31.331Z,11.70
2017-12-19T22:02:33.333Z,12.03
2017-12-19T22:05:34.597Z,11.90
2017-12-19T22:08:36.591Z,11.83
2017-12-19T22:11:37.877Z,13.27
2017-12-19T22:14:39.173Z,10.43
2017-12-19T22:17:40.409Z,11.17
2017-12-19T22:20:41.686Z,10.03
2017-12-19T22:23:42.948Z,10.70
2017-12-19T22:26:44.184Z,10.73
2017-12-19T22:29:45.480Z,9.40
2017-12-19T22:32:46.730Z,11.63
2017-12-19T22:35:48.131Z,8.70
2017-12-19T22:38:50.106Z,10.37
2017-12-19T22:41:51.361Z,12.47
2017-12-19T22:44:52.585Z,9.40
2017-12-19T22:47:53.892Z,7.40
2017-12-19T22:50:55.892Z,9.97
2017-12-19T22:53:57.137Z,10.97
2017-12-19T22:56:58.404Z,10.47
2017-12-19T22:59:59.644Z,9.90
2017-12-19T23:03:01.059Z,11.10
2017-12-19T23:06:02.303Z,11.77
2017-12-19T23:09:04.806Z,8.30
2017-12-19T23:12:06.030Z,9.00
2017-12-19T23:15:08.061Z,9.93
2017-12-19T23:18:09.341Z,11.03
2017-12-19T23:21:11.322Z,12.07
2017-12-19T23:24:12.616Z,10.67
2017-12-19T23:27:13.852Z,10.10
2017-12-19T23:30:15.126Z,10.30
2017-12-19T23:33:16.388Z,9.83
2017-12-19T23:36:17.691Z,9.27
2017-12-19T23:39:18.931Z,9.90
2017-12-19T23:42:27.048Z,8.60
2017-12-19T23:45:28.344Z,7.60
2017-12-19T23:48:29.593Z,7.93
2017-12-19T23:51:30.861Z,7.20
2017-12-19T23:54:32.871Z,7.60
2017-12-19T23:57:34.129Z,7.17
